Time;durP1;ratioP1;P1;durP2;ratioP2;P2;SDS_P1;SDS_P2;PMS_P1;PMS_P2;Temp;Humidity;BMP_temperature;BMP_pressure;BME280_temperature;BME280_humidity;BME280_pressure;Samples;Min_cycle;Max_cycle;Signal;HPM_P1;HPM_P2
2023/05/08 00:00:03;;;;;;;3.50;3.20;;;18.10;99.90;;;;;;5033084;28;20188;-73
2023/05/08 00:02:31;;;;;;;3.47;3.17;;;18.00;99.90;;;;;;5015447;28;20206;-73
2023/05/08 00:04:56;;;;;;;3.60;3.30;;;18.10;99.90;;;;;;5032076;28;20643;-73
2023/05/08 00:07:22;;;;;;;4.27;3.33;;;18.00;99.90;;;;;;4998585;28;20948;-73
2023/05/08 00:09:48;;;;;;;3.67;3.37;;;18.00;99.90;;;;;;5032240;28;20195;-74
2023/05/08 00:12:13;;;;;;;3.60;2.93;;;18.00;99.90;;;;;;5032541;28;20261;-74
2023/05/08 00:14:40;;;;;;;4.47;4.00;;;18.00;99.90;;;;;;5002266;28;20182;-74
2023/05/08 00:17:05;;;;;;;5.33;3.70;;;18.00;99.90;;;;;;5011367;28;20174;-73
2023/05/08 00:19:31;;;;;;;3.57;2.93;;;18.00;99.90;;;;;;5013309;28;20581;-73
2023/05/08 00:21:56;;;;;;;3.27;2.97;;;18.00;99.90;;;;;;5012628;28;20232;-74
2023/05/08 00:24:22;;;;;;;4.30;3.07;;;18.00;99.90;;;;;;4995665;28;20204;-73
2023/05/08 00:26:48;;;;;;;3.80;3.00;;;17.90;99.90;;;;;;5012613;28;20240;-74
2023/05/08 00:29:14;;;;;;;4.20;3.80;;;17.90;99.90;;;;;;4995589;28;20225;-74
2023/05/08 00:31:40;;;;;;;3.43;3.13;;;17.90;99.90;;;;;;4995641;28;20269;-74
2023/05/08 00:34:06;;;;;;;3.20;2.90;;;17.90;99.90;;;;;;5012541;28;20696;-73
2023/05/08 00:36:31;;;;;;;3.77;2.53;;;17.80;99.90;;;;;;5006763;28;20730;-74
2023/05/08 00:38:57;;;;;;;3.70;3.40;;;17.80;99.90;;;;;;5014614;28;20512;-74
2023/05/08 00:41:23;;;;;;;4.00;2.70;;;17.80;99.90;;;;;;5000590;28;20233;-73
2023/05/08 00:43:48;;;;;;;4.10;3.37;;;17.80;99.90;;;;;;5032004;28;20673;-74
2023/05/08 00:46:15;;;;;;;3.97;3.60;;;17.80;99.90;;;;;;5014480;28;20243;-73
2023/05/08 00:48:42;;;;;;;5.00;3.37;;;17.70;99.90;;;;;;5032251;28;20569;-74
2023/05/08 00:51:10;;;;;;;3.40;2.57;;;17.70;99.90;;;;;;5027979;28;20609;-73
2023/05/08 00:53:39;;;;;;;4.00;3.07;;;17.70;99.90;;;;;;5014456;28;20758;-73
2023/05/08 00:56:09;;;;;;;4.70;3.00;;;17.70;99.90;;;;;;5030566;28;20675;-74
2023/05/08 00:58:34;;;;;;;5.00;3.80;;;17.60;99.90;;;;;;5014747;28;20631;-73
2023/05/08 01:01:00;;;;;;;3.70;3.37;;;17.60;99.90;;;;;;5031684;28;20600;-74
2023/05/08 01:03:27;;;;;;;2.77;2.53;;;17.60;99.90;;;;;;4997344;28;20202;-74
2023/05/08 01:05:53;;;;;;;3.70;3.40;;;17.60;99.90;;;;;;5010533;28;21004;-74
2023/05/08 01:08:19;;;;;;;3.03;2.83;;;17.60;99.90;;;;;;4994880;28;20570;-74
2023/05/08 01:10:59;;;;;;;3.73;2.63;;;17.50;99.90;;;;;;5011817;28;20921;-74
2023/05/08 01:13:47;;;;;;;3.00;2.70;;;17.50;99.90;;;;;;4970194;28;20201;-74
2023/05/08 01:16:27;;;;;;;3.20;2.90;;;17.50;99.90;;;;;;4988643;28;20692;-74
2023/05/08 01:19:01;;;;;;;4.20;3.27;;;17.50;99.90;;;;;;5011229;28;20613;-74
2023/05/08 01:21:42;;;;;;;3.60;3.27;;;17.50;99.90;;;;;;5011533;28;20995;-74
2023/05/08 01:24:18;;;;;;;3.33;2.60;;;17.40;99.90;;;;;;4975158;28;20618;-74
2023/05/08 01:27:09;;;;;;;4.70;2.67;;;17.40;99.90;;;;;;4992014;28;21189;-73
2023/05/08 01:29:37;;;;;;;2.93;2.73;;;17.40;99.90;;;;;;4992761;28;20574;-74
2023/05/08 01:32:20;;;;;;;4.20;3.30;;;17.40;99.90;;;;;;4994055;28;20613;-74
2023/05/08 01:35:22;;;;;;;3.20;2.67;;;17.40;99.90;;;;;;5011077;28;20589;-74
2023/05/08 01:37:54;;;;;;;3.20;2.90;;;17.40;99.90;;;;;;5010402;28;20599;-73
2023/05/08 01:40:38;;;;;;;3.80;3.47;;;17.30;99.90;;;;;;4994644;28;20692;-73
2023/05/08 01:43:21;;;;;;;3.63;3.33;;;17.30;99.90;;;;;;4993570;28;20620;-74
2023/05/08 01:45:50;;;;;;;3.03;2.57;;;17.30;99.90;;;;;;4962037;28;20695;-74
2023/05/08 01:48:24;;;;;;;3.30;3.00;;;17.30;99.90;;;;;;5011397;28;20589;-73
2023/05/08 01:50:57;;;;;;;4.20;3.30;;;17.30;99.90;;;;;;4978638;28;20593;-74
2023/05/08 01:53:28;;;;;;;4.10;2.97;;;17.20;99.90;;;;;;4994165;28;20932;-74
2023/05/08 01:55:58;;;;;;;3.50;3.20;;;17.20;99.90;;;;;;4993961;28;20581;-74
2023/05/08 01:58:26;;;;;;;3.93;3.60;;;17.20;99.90;;;;;;4994110;28;20581;-74
2023/05/08 02:00:53;;;;;;;3.90;3.40;;;17.20;99.90;;;;;;4993435;28;20589;-73
2023/05/08 02:03:21;;;;;;;3.80;3.50;;;17.20;99.90;;;;;;4993887;28;20936;-73
2023/05/08 02:05:50;;;;;;;3.53;3.23;;;17.20;99.90;;;;;;4993114;28;20625;-74
2023/05/08 02:08:17;;;;;;;4.20;3.80;;;17.20;99.90;;;;;;4993926;28;20569;-74
2023/05/08 02:10:46;;;;;;;4.77;4.20;;;17.20;99.90;;;;;;4993326;28;20631;-73
2023/05/08 02:13:17;;;;;;;3.80;3.30;;;17.20;99.90;;;;;;4993519;28;20605;-73
2023/05/08 02:15:47;;;;;;;4.37;3.97;;;17.20;99.90;;;;;;4993106;28;20573;-74
2023/05/08 02:18:14;;;;;;;5.60;5.10;;;17.20;99.90;;;;;;5011402;28;21196;-74
2023/05/08 02:20:41;;;;;;;4.80;4.40;;;17.20;99.90;;;;;;5008942;28;21031;-74
2023/05/08 02:23:08;;;;;;;4.73;3.90;;;17.20;99.90;;;;;;5019616;28;20623;-73
2023/05/08 02:25:35;;;;;;;4.40;4.00;;;17.20;99.90;;;;;;5006360;28;21223;-73
2023/05/08 02:28:01;;;;;;;4.83;4.40;;;17.20;99.90;;;;;;4996519;28;20572;-74
2023/05/08 02:30:28;;;;;;;3.73;3.27;;;17.20;99.90;;;;;;5030991;28;20627;-73
2023/05/08 02:32:55;;;;;;;4.60;4.20;;;17.20;99.90;;;;;;5030234;28;20967;-73
2023/05/08 02:35:23;;;;;;;4.27;3.87;;;17.20;99.90;;;;;;5013313;28;20599;-73
2023/05/08 02:37:52;;;;;;;4.80;4.30;;;17.20;99.90;;;;;;5001787;28;20592;-74
2023/05/08 02:40:21;;;;;;;3.90;3.50;;;17.20;99.90;;;;;;5013123;28;20592;-73
2023/05/08 02:42:47;;;;;;;3.90;3.50;;;17.20;99.90;;;;;;5012375;28;20632;-73
2023/05/08 02:45:13;;;;;;;4.73;4.33;;;17.20;99.90;;;;;;5013098;28;20992;-73
2023/05/08 02:47:50;;;;;;;6.07;3.77;;;17.10;99.90;;;;;;5012824;28;20564;-73
2023/05/08 02:50:25;;;;;;;4.70;4.30;;;17.10;99.90;;;;;;5013018;28;20584;-73
2023/05/08 02:52:58;;;;;;;5.97;4.47;;;17.10;99.90;;;;;;5012509;28;20600;-73
2023/05/08 02:55:33;;;;;;;5.57;4.37;;;17.10;99.90;;;;;;5013159;28;20576;-74
2023/05/08 02:58:17;;;;;;;4.60;4.20;;;17.10;99.90;;;;;;5013207;28;20594;-73
2023/05/08 03:01:05;;;;;;;5.03;4.30;;;17.10;99.90;;;;;;5030496;28;21112;-73
2023/05/08 03:03:40;;;;;;;4.73;3.77;;;17.10;99.90;;;;;;5012700;28;20624;-73
2023/05/08 03:06:12;;;;;;;5.03;4.53;;;17.10;99.90;;;;;;5012378;28;20647;-73
2023/05/08 03:08:39;;;;;;;4.40;4.00;;;17.10;99.90;;;;;;5029328;28;20576;-73
2023/05/08 03:11:11;;;;;;;4.90;4.40;;;17.10;99.90;;;;;;5028858;28;20591;-73
2023/05/08 03:13:39;;;;;;;4.60;4.20;;;17.10;99.90;;;;;;5012682;28;21167;-73
2023/05/08 03:16:10;;;;;;;5.23;4.73;;;17.10;99.90;;;;;;5012110;28;20607;-73
2023/05/08 03:18:41;;;;;;;4.47;4.07;;;17.10;99.90;;;;;;5006946;28;20720;-73
2023/05/08 03:21:11;;;;;;;4.60;4.20;;;17.10;99.90;;;;;;5004577;28;20595;-73
2023/05/08 03:23:39;;;;;;;4.73;4.20;;;17.10;99.90;;;;;;4976891;28;20659;-73
2023/05/08 03:26:06;;;;;;;5.13;4.67;;;17.20;99.90;;;;;;4962260;28;20639;-73
2023/05/08 03:28:35;;;;;;;3.90;3.53;;;17.20;99.90;;;;;;5013081;28;20581;-74
2023/05/08 03:31:02;;;;;;;4.20;3.90;;;17.20;99.90;;;;;;4996350;28;20605;-74
2023/05/08 03:33:29;;;;;;;5.70;5.10;;;17.20;99.90;;;;;;5014080;28;20635;-74
2023/05/08 03:35:58;;;;;;;6.50;5.90;;;17.20;99.90;;;;;;4996342;28;20640;-74
2023/05/08 03:38:24;;;;;;;6.80;4.70;;;17.10;99.90;;;;;;4996442;28;20611;-73
2023/05/08 03:40:50;;;;;;;5.80;5.20;;;17.10;99.90;;;;;;4996197;28;20585;-74
2023/05/08 03:43:17;;;;;;;7.50;6.80;;;17.10;99.90;;;;;;5013384;28;20360;-73
2023/05/08 03:45:45;;;;;;;6.53;6.03;;;17.10;99.90;;;;;;4996242;28;20623;-73
2023/05/08 03:48:13;;;;;;;7.07;6.40;;;17.00;99.90;;;;;;4995906;28;20592;-73
2023/05/08 03:50:40;;;;;;;6.03;5.43;;;17.00;99.90;;;;;;4996278;28;21159;-73
2023/05/08 03:53:08;;;;;;;5.37;4.97;;;16.90;99.90;;;;;;4995569;28;20608;-74
2023/05/08 03:55:35;;;;;;;5.77;5.20;;;16.90;99.90;;;;;;4995941;28;20608;-73
2023/05/08 03:58:37;;;;;;;6.70;5.70;;;16.90;99.90;;;;;;4995895;28;20636;-74
2023/05/08 04:01:10;;;;;;;6.70;5.30;;;16.80;99.90;;;;;;4995160;28;20679;-74
2023/05/08 04:03:52;;;;;;;6.67;5.73;;;16.80;99.90;;;;;;4980494;28;20621;-73
2023/05/08 04:06:30;;;;;;;5.90;5.23;;;16.80;99.90;;;;;;4997499;28;20730;-73
2023/05/08 04:09:07;;;;;;;6.93;6.10;;;16.80;99.90;;;;;;5015265;28;20623;-73
2023/05/08 04:12:08;;;;;;;6.27;5.33;;;16.80;99.90;;;;;;5015613;28;21154;-73
2023/05/08 04:14:41;;;;;;;5.30;4.73;;;16.70;99.90;;;;;;5003203;28;20631;-73
2023/05/08 04:17:11;;;;;;;6.23;5.63;;;16.80;99.90;;;;;;5011591;28;20601;-73
2023/05/08 04:19:42;;;;;;;6.53;5.90;;;16.80;99.90;;;;;;5011704;28;20561;-73
2023/05/08 04:22:10;;;;;;;7.17;5.50;;;16.80;99.90;;;;;;5002318;28;20585;-73
2023/05/08 04:24:42;;;;;;;7.73;5.37;;;16.80;99.90;;;;;;4995923;28;20588;-74
2023/05/08 04:27:09;;;;;;;5.13;4.73;;;16.80;99.90;;;;;;4995051;28;20597;-73
2023/05/08 04:29:36;;;;;;;7.30;6.57;;;16.80;99.90;;;;;;4995570;28;20646;-73
2023/05/08 04:32:04;;;;;;;8.57;6.30;;;16.80;99.90;;;;;;4995059;28;20581;-73
2023/05/08 04:34:31;;;;;;;7.30;4.70;;;16.80;99.90;;;;;;5013058;28;20609;-73
2023/05/08 04:36:58;;;;;;;6.00;5.40;;;16.90;99.90;;;;;;4993684;28;21152;-73
2023/05/08 04:39:24;;;;;;;6.60;5.90;;;16.90;99.90;;;;;;4979376;28;20615;-74
2023/05/08 04:41:51;;;;;;;7.30;6.60;;;16.90;99.90;;;;;;4994739;28;20585;-73
2023/05/08 04:44:17;;;;;;;6.80;6.20;;;16.90;99.90;;;;;;4995058;28;21453;-73
2023/05/08 04:46:43;;;;;;;6.00;5.40;;;16.80;99.90;;;;;;4994802;28;20629;-72
2023/05/08 04:49:09;;;;;;;6.63;6.03;;;16.80;99.90;;;;;;4978990;28;20170;-73
2023/05/08 04:51:35;;;;;;;7.57;6.87;;;16.80;99.90;;;;;;4995040;28;20672;-72
2023/05/08 04:54:01;;;;;;;7.27;6.67;;;16.80;99.90;;;;;;4994838;28;20694;-73
2023/05/08 04:56:27;;;;;;;7.77;7.07;;;16.80;99.90;;;;;;4994829;28;20213;-72
2023/05/08 04:58:53;;;;;;;7.60;7.00;;;16.80;99.90;;;;;;4994763;28;20576;-72
2023/05/08 05:01:20;;;;;;;8.90;8.00;;;16.80;99.90;;;;;;4994900;28;20573;-72
2023/05/08 05:03:46;;;;;;;8.67;6.53;;;16.80;99.90;;;;;;4994364;28;20612;-72
2023/05/08 05:06:12;;;;;;;7.57;6.87;;;16.80;99.90;;;;;;4994778;28;20296;-72
2023/05/08 05:08:37;;;;;;;7.87;7.17;;;16.80;99.90;;;;;;5012162;28;20570;-71
2023/05/08 05:11:03;;;;;;;7.00;6.40;;;16.90;99.90;;;;;;4999403;28;20190;-73
2023/05/08 05:13:29;;;;;;;7.70;7.00;;;16.90;99.90;;;;;;5010396;28;20196;-73
2023/05/08 05:15:57;;;;;;;7.20;6.53;;;17.00;99.90;;;;;;4994611;28;20196;-73
2023/05/08 05:18:23;;;;;;;7.37;6.67;;;17.00;99.90;;;;;;4994715;28;20596;-74
2023/05/08 05:20:51;;;;;;;8.33;7.33;;;17.10;99.90;;;;;;5010583;28;20704;-73
2023/05/08 05:23:17;;;;;;;7.83;7.07;;;17.20;99.90;;;;;;4994516;28;20769;-73
2023/05/08 05:25:43;;;;;;;8.10;7.00;;;17.20;99.90;;;;;;4993935;28;20988;-73
2023/05/08 05:28:08;;;;;;;7.53;6.90;;;17.30;99.90;;;;;;5012326;28;20573;-73
2023/05/08 05:30:34;;;;;;;8.00;7.23;;;17.30;99.90;;;;;;4994004;28;20171;-72
2023/05/08 05:33:00;;;;;;;7.30;6.50;;;17.40;99.90;;;;;;5010807;28;20194;-74
2023/05/08 05:35:26;;;;;;;6.70;6.20;;;17.40;99.90;;;;;;4986614;28;20335;-72
2023/05/08 05:37:53;;;;;;;9.43;8.10;;;17.40;99.90;;;;;;4993726;28;20662;-72
2023/05/08 05:40:19;;;;;;;9.00;7.90;;;17.40;99.90;;;;;;5011604;28;20589;-73
2023/05/08 05:42:49;;;;;;;7.20;6.50;;;17.50;99.90;;;;;;5010037;28;20198;-73
2023/05/08 05:45:15;;;;;;;8.87;6.73;;;17.60;99.90;;;;;;4977620;28;20288;-73
2023/05/08 05:47:48;;;;;;;7.93;7.23;;;17.60;99.90;;;;;;4993106;28;20579;-73
2023/05/08 05:50:17;;;;;;;7.80;7.10;;;17.60;99.90;;;;;;4994055;28;20581;-73
2023/05/08 05:52:43;;;;;;;11.40;7.47;;;17.60;99.90;;;;;;4993346;28;20649;-74
2023/05/08 05:55:08;;;;;;;7.80;7.10;;;17.70;99.90;;;;;;4977839;28;20660;-74
2023/05/08 05:57:34;;;;;;;8.37;7.50;;;17.80;99.90;;;;;;4976872;28;20581;-74
2023/05/08 06:00:00;;;;;;;7.73;7.03;;;17.80;99.90;;;;;;4993975;28;20186;-74
2023/05/08 06:02:26;;;;;;;8.17;7.47;;;17.90;99.90;;;;;;4976992;28;20606;-73
2023/05/08 06:04:52;;;;;;;8.63;7.83;;;17.90;99.90;;;;;;5011286;28;21202;-74
2023/05/08 06:07:19;;;;;;;8.07;7.33;;;17.90;99.90;;;;;;4983671;28;20278;-74
2023/05/08 06:09:45;;;;;;;9.40;8.30;;;17.90;99.90;;;;;;5010890;28;20175;-74
2023/05/08 06:12:11;;;;;;;7.83;7.13;;;18.00;99.90;;;;;;5012826;28;20565;-74
2023/05/08 06:14:37;;;;;;;7.63;6.93;;;18.10;99.90;;;;;;5012773;28;21189;-74
2023/05/08 06:17:02;;;;;;;7.83;7.13;;;18.20;99.90;;;;;;4993669;28;20182;-74
2023/05/08 06:19:29;;;;;;;7.77;7.17;;;18.20;99.90;;;;;;4993293;28;20210;-73
2023/05/08 06:21:55;;;;;;;8.20;7.50;;;18.30;99.90;;;;;;4977249;28;20636;-74
2023/05/08 06:24:21;;;;;;;8.80;8.10;;;18.20;99.90;;;;;;4993181;28;20194;-74
2023/05/08 06:26:47;;;;;;;7.33;6.70;;;18.20;99.90;;;;;;5010931;28;20197;-73
2023/05/08 06:29:12;;;;;;;8.10;7.03;;;18.20;99.90;;;;;;4993688;28;20580;-73
2023/05/08 06:31:38;;;;;;;8.07;7.40;;;18.20;99.90;;;;;;5010656;28;20166;-74
2023/05/08 06:34:04;;;;;;;7.73;7.03;;;18.20;99.90;;;;;;5011152;28;20277;-74
2023/05/08 06:36:30;;;;;;;7.87;7.13;;;18.20;99.90;;;;;;4992640;28;20583;-74
2023/05/08 06:38:56;;;;;;;8.93;8.03;;;18.30;99.90;;;;;;4993553;28;20216;-74
2023/05/08 06:41:22;;;;;;;7.77;7.07;;;18.30;99.90;;;;;;4992800;28;20581;-74
2023/05/08 06:43:47;;;;;;;7.50;6.80;;;18.40;99.90;;;;;;5009592;28;20724;-74
2023/05/08 06:46:13;;;;;;;9.03;7.33;;;18.60;99.90;;;;;;5010209;28;20224;-73
2023/05/08 06:48:40;;;;;;;7.43;6.53;;;18.70;99.90;;;;;;5011744;28;20189;-74
2023/05/08 06:51:05;;;;;;;7.10;6.40;;;18.80;99.90;;;;;;5013675;28;20189;-74
2023/05/08 06:53:31;;;;;;;7.03;6.33;;;18.90;99.90;;;;;;4992960;28;20605;-74
2023/05/08 06:55:57;;;;;;;6.70;6.10;;;19.00;99.90;;;;;;4993656;28;20593;-74
2023/05/08 06:58:23;;;;;;;9.53;6.77;;;19.00;99.90;;;;;;5009188;28;20277;-74
2023/05/08 07:00:49;;;;;;;7.70;7.00;;;19.10;99.90;;;;;;5012825;28;20668;-74
2023/05/08 07:03:15;;;;;;;7.50;6.27;;;19.20;99.90;;;;;;4970109;28;20214;-74
2023/05/08 07:05:40;;;;;;;7.90;6.70;;;19.30;99.90;;;;;;5013126;28;20202;-74
2023/05/08 07:08:06;;;;;;;7.47;6.70;;;19.40;99.90;;;;;;5013101;28;20171;-74
2023/05/08 07:10:32;;;;;;;6.27;5.77;;;19.40;99.90;;;;;;5014739;28;20209;-74
2023/05/08 07:12:57;;;;;;;5.80;5.30;;;19.50;99.90;;;;;;5013075;28;20256;-74
2023/05/08 07:15:23;;;;;;;6.17;5.10;;;19.60;99.90;;;;;;5014251;28;20177;-73
2023/05/08 07:17:49;;;;;;;5.60;5.10;;;19.60;99.90;;;;;;4991928;28;20261;-74
2023/05/08 07:20:15;;;;;;;6.40;5.80;;;19.60;99.90;;;;;;4996457;28;20186;-74
2023/05/08 07:22:41;;;;;;;5.97;5.53;;;19.70;99.90;;;;;;5014098;28;20211;-74
2023/05/08 07:25:07;;;;;;;5.70;5.20;;;19.80;99.90;;;;;;5014022;28;20573;-73
2023/05/08 07:27:33;;;;;;;6.40;5.80;;;19.80;99.90;;;;;;5015156;28;20225;-73
2023/05/08 07:30:03;;;;;;;6.13;5.53;;;19.90;99.90;;;;;;5013653;28;20561;-73
2023/05/08 07:32:30;;;;;;;5.90;5.40;;;20.00;99.90;;;;;;5012920;28;20265;-74
2023/05/08 07:34:56;;;;;;;6.17;5.57;;;20.10;99.90;;;;;;5013169;28;20581;-74
2023/05/08 07:37:22;;;;;;;5.83;5.33;;;20.20;99.90;;;;;;5013524;28;20919;-74
2023/05/08 07:39:48;;;;;;;6.50;5.90;;;20.30;99.90;;;;;;4996615;28;20270;-74
2023/05/08 07:42:14;;;;;;;7.10;5.83;;;20.30;99.90;;;;;;4995675;28;21008;-74
2023/05/08 07:44:39;;;;;;;5.87;5.20;;;20.50;99.90;;;;;;5014139;28;20688;-74
2023/05/08 07:47:05;;;;;;;5.97;5.47;;;20.70;99.90;;;;;;5012099;28;20209;-74
2023/05/08 07:49:31;;;;;;;4.53;4.13;;;21.00;99.90;;;;;;5014134;28;20175;-74
2023/05/08 07:51:56;;;;;;;5.80;5.13;;;21.30;99.90;;;;;;4995744;28;20182;-74
2023/05/08 07:54:22;;;;;;;5.00;4.57;;;21.60;99.90;;;;;;4996219;28;20198;-74
2023/05/08 07:56:48;;;;;;;5.20;4.63;;;22.00;99.90;;;;;;4979679;28;20269;-74
2023/05/08 07:59:13;;;;;;;4.87;4.47;;;22.40;99.90;;;;;;4995665;28;20186;-74
2023/05/08 08:01:41;;;;;;;5.17;4.67;;;22.90;99.90;;;;;;5012275;28;20178;-73
2023/05/08 08:04:07;;;;;;;4.57;4.17;;;23.60;99.90;;;;;;5013793;28;20288;-74
2023/05/08 08:06:36;;;;;;;5.20;4.73;;;24.00;99.90;;;;;;5012046;28;20625;-73
2023/05/08 08:09:01;;;;;;;4.53;4.13;;;24.50;99.90;;;;;;5013193;28;20557;-74
2023/05/08 08:11:27;;;;;;;4.30;3.90;;;24.70;99.90;;;;;;5012193;28;20588;-74
2023/05/08 08:13:53;;;;;;;4.90;4.50;;;24.80;99.90;;;;;;5012786;28;20221;-73
2023/05/08 08:16:20;;;;;;;4.43;4.03;;;24.80;99.90;;;;;;5012370;28;20174;-73
2023/05/08 08:18:45;;;;;;;4.00;3.70;;;25.00;99.90;;;;;;4996000;28;20184;-74
2023/05/08 08:21:11;;;;;;;4.40;3.70;;;25.30;99.90;;;;;;4994921;28;20941;-74
2023/05/08 08:23:37;;;;;;;3.80;3.50;;;25.70;99.90;;;;;;5013226;28;20208;-74
2023/05/08 08:26:02;;;;;;;4.00;3.70;;;26.20;99.90;;;;;;5012541;28;20241;-74
2023/05/08 08:28:28;;;;;;;3.60;3.30;;;26.70;99.90;;;;;;5012038;28;20217;-73
2023/05/08 08:30:54;;;;;;;4.10;3.70;;;27.00;99.90;;;;;;5011252;28;20178;-74
2023/05/08 08:33:20;;;;;;;4.00;3.60;;;27.20;99.90;;;;;;4995594;28;20637;-73
2023/05/08 08:35:45;;;;;;;4.07;3.70;;;27.20;99.90;;;;;;5010925;28;20189;-74
2023/05/08 08:38:11;;;;;;;5.20;4.70;;;27.10;99.90;;;;;;5011820;28;20712;-74
2023/05/08 08:40:41;;;;;;;4.83;4.43;;;26.90;99.90;;;;;;5011714;28;20229;-73
2023/05/08 08:43:08;;;;;;;5.20;4.70;;;26.40;99.90;;;;;;5012099;28;20221;-73
2023/05/08 08:45:35;;;;;;;4.70;3.70;;;25.90;99.90;;;;;;4995025;28;20728;-73
2023/05/08 08:48:02;;;;;;;5.47;4.97;;;25.50;99.90;;;;;;5010216;28;20699;-73
2023/05/08 08:50:32;;;;;;;4.80;4.00;;;25.00;99.90;;;;;;5032358;28;20584;-73
2023/05/08 08:52:58;;;;;;;4.03;3.70;;;24.60;99.90;;;;;;5031811;28;20949;-73
2023/05/08 08:55:25;;;;;;;5.37;4.87;;;24.20;99.90;;;;;;5023452;28;20617;-73
2023/05/08 08:58:08;;;;;;;5.03;4.33;;;23.90;99.90;;;;;;5012022;28;20588;-73
2023/05/08 09:00:36;;;;;;;5.27;4.77;;;23.60;99.90;;;;;;5012612;28;20573;-73
2023/05/08 09:03:04;;;;;;;5.10;4.60;;;23.50;99.90;;;;;;5010593;28;20960;-73
2023/05/08 09:05:31;;;;;;;6.33;5.60;;;23.30;99.90;;;;;;5012510;28;20621;-73
2023/05/08 09:07:58;;;;;;;5.07;4.57;;;23.10;99.90;;;;;;5011082;28;21207;-73
2023/05/08 09:10:24;;;;;;;5.67;5.10;;;22.90;99.90;;;;;;5011887;28;20909;-73
2023/05/08 09:12:50;;;;;;;6.03;5.30;;;22.80;99.90;;;;;;5010933;28;20609;-73
2023/05/08 09:15:16;;;;;;;7.33;5.33;;;22.70;99.90;;;;;;5011736;28;20581;-73
2023/05/08 09:17:42;;;;;;;5.40;5.00;;;22.40;99.90;;;;;;5011994;28;20662;-73
2023/05/08 09:20:08;;;;;;;6.30;5.80;;;22.20;99.90;;;;;;5011261;28;21236;-74
2023/05/08 09:22:38;;;;;;;5.10;4.70;;;22.10;99.90;;;;;;5010542;28;20202;-74
2023/05/08 09:25:04;;;;;;;9.30;6.07;;;21.90;99.90;;;;;;4994070;28;20937;-73
2023/05/08 09:27:31;;;;;;;6.43;5.23;;;21.80;99.90;;;;;;4994216;28;20577;-74
2023/05/08 09:30:06;;;;;;;5.47;4.97;;;21.60;99.90;;;;;;5010905;28;20592;-73
2023/05/08 09:32:33;;;;;;;5.03;4.53;;;21.50;99.90;;;;;;4993883;28;20580;-74
2023/05/08 09:34:59;;;;;;;5.80;5.20;;;21.40;99.90;;;;;;5010638;28;20584;-73
2023/05/08 09:37:27;;;;;;;6.23;4.87;;;21.40;99.90;;;;;;5011236;28;20578;-74
2023/05/08 09:39:53;;;;;;;6.27;5.67;;;21.40;99.90;;;;;;5010751;28;20580;-73
2023/05/08 09:42:19;;;;;;;6.17;5.57;;;21.40;99.90;;;;;;5011035;28;20564;-73
2023/05/08 09:44:52;;;;;;;6.17;5.60;;;21.20;99.90;;;;;;5011764;28;20590;-73
2023/05/08 09:47:21;;;;;;;6.60;5.17;;;21.10;99.90;;;;;;5011114;28;20954;-73
2023/05/08 09:50:00;;;;;;;5.63;5.03;;;21.10;99.90;;;;;;4994079;28;20585;-73
2023/05/08 09:52:30;;;;;;;6.10;5.50;;;21.00;99.90;;;;;;5000965;28;20601;-73
2023/05/08 09:55:01;;;;;;;5.20;4.80;;;21.00;99.90;;;;;;5010150;28;20586;-74
2023/05/08 09:57:31;;;;;;;6.90;6.30;;;21.00;99.90;;;;;;5010058;28;20585;-72
2023/05/08 10:00:08;;;;;;;6.20;5.60;;;21.00;99.90;;;;;;5011477;28;20620;-73
2023/05/08 10:02:37;;;;;;;5.63;5.13;;;20.90;99.90;;;;;;5010114;28;20624;-73
2023/05/08 10:05:22;;;;;;;6.97;6.27;;;20.90;99.90;;;;;;5010967;28;20573;-73
2023/05/08 10:07:48;;;;;;;5.27;4.77;;;20.90;99.90;;;;;;4977235;28;21145;-73
2023/05/08 10:10:13;;;;;;;4.80;4.40;;;20.90;99.90;;;;;;4991239;28;20594;-73
2023/05/08 10:12:41;;;;;;;6.13;5.53;;;20.90;99.90;;;;;;4974179;28;20713;-72
2023/05/08 10:15:07;;;;;;;6.50;5.90;;;20.90;99.90;;;;;;4973969;28;20589;-73
2023/05/08 10:17:48;;;;;;;6.93;5.87;;;20.80;99.90;;;;;;4991835;28;20594;-73
2023/05/08 10:20:14;;;;;;;6.80;6.20;;;20.80;99.90;;;;;;4973864;28;20597;-72
2023/05/08 10:22:42;;;;;;;6.70;6.10;;;20.70;99.90;;;;;;5008475;28;20617;-73
2023/05/08 10:25:15;;;;;;;10.10;6.20;;;20.60;99.90;;;;;;5010861;28;21010;-73
2023/05/08 10:27:51;;;;;;;6.40;4.90;;;20.50;99.90;;;;;;4977305;28;20987;-73
2023/05/08 10:30:22;;;;;;;6.20;5.70;;;20.40;99.90;;;;;;5009814;28;20627;-73
2023/05/08 10:32:53;;;;;;;7.30;6.43;;;20.40;99.90;;;;;;4993493;28;20609;-72
2023/05/08 10:35:20;;;;;;;6.70;6.10;;;20.30;99.90;;;;;;5009168;28;20608;-73
2023/05/08 10:37:47;;;;;;;6.03;5.50;;;20.20;99.90;;;;;;5009541;28;20596;-73
2023/05/08 10:40:19;;;;;;;5.87;5.37;;;20.20;99.90;;;;;;5011173;28;20584;-73
2023/05/08 10:42:46;;;;;;;8.23;6.93;;;20.20;99.90;;;;;;4993000;28;20636;-72
2023/05/08 10:45:12;;;;;;;6.90;6.37;;;20.20;99.90;;;;;;5011293;28;20700;-72
2023/05/08 10:48:05;;;;;;;6.33;5.73;;;20.20;99.90;;;;;;5010289;28;20708;-72
2023/05/08 10:50:49;;;;;;;6.93;6.20;;;20.20;99.90;;;;;;5009830;28;20620;-75
2023/05/08 10:53:21;;;;;;;6.77;6.07;;;20.30;99.90;;;;;;5009321;28;20601;-72
2023/05/08 10:55:50;;;;;;;8.87;5.97;;;20.30;99.90;;;;;;5010922;28;21418;-73
2023/05/08 10:58:31;;;;;;;6.60;6.00;;;20.40;99.90;;;;;;5009471;28;20593;-73
2023/05/08 11:00:58;;;;;;;4.83;4.43;;;20.50;99.90;;;;;;5009788;28;20581;-73
2023/05/08 11:03:28;;;;;;;5.63;5.03;;;20.60;99.90;;;;;;5009022;28;20621;-73
2023/05/08 11:05:56;;;;;;;6.37;5.77;;;20.70;99.90;;;;;;5009493;28;20632;-73
2023/05/08 11:08:26;;;;;;;6.90;6.20;;;20.80;99.90;;;;;;5010477;28;20740;-73
2023/05/08 11:11:02;;;;;;;7.57;6.97;;;20.80;99.90;;;;;;5009924;28;20585;-73
2023/05/08 11:13:49;;;;;;;7.07;6.50;;;20.90;99.90;;;;;;5025230;28;21191;-73
2023/05/08 11:16:15;;;;;;;6.70;6.07;;;20.90;99.90;;;;;;5009488;28;20582;-73
2023/05/08 11:19:26;;;;;;;8.50;5.97;;;20.80;99.90;;;;;;4992877;28;20616;-73
2023/05/08 11:22:10;;;;;;;8.57;7.70;;;20.70;99.90;;;;;;5005128;28;20182;-73
2023/05/08 11:24:38;;;;;;;8.00;7.27;;;20.50;99.90;;;;;;5009060;28;20691;-73
2023/05/08 11:27:04;;;;;;;8.20;6.43;;;20.50;99.90;;;;;;5010574;28;20659;-73
2023/05/08 11:29:29;;;;;;;8.00;6.93;;;20.40;99.90;;;;;;5010261;28;20689;-73
2023/05/08 11:31:55;;;;;;;6.90;6.30;;;20.40;99.90;;;;;;4992970;28;21248;-74
2023/05/08 11:34:54;;;;;;;6.23;5.40;;;20.30;99.90;;;;;;5009261;28;20194;-73
2023/05/08 11:37:25;;;;;;;6.10;5.67;;;20.30;99.90;;;;;;4956634;28;21204;-73
2023/05/08 11:39:51;;;;;;;5.37;4.87;;;20.40;99.90;;;;;;4993165;28;20677;-73
2023/05/08 11:42:25;;;;;;;7.20;6.60;;;20.60;99.90;;;;;;5009614;28;20644;-73
2023/05/08 11:45:06;;;;;;;7.43;6.30;;;20.60;99.90;;;;;;5012211;28;20182;-73
2023/05/08 11:47:38;;;;;;;7.90;5.47;;;20.70;99.90;;;;;;5012509;28;20589;-73
2023/05/08 11:50:04;;;;;;;5.77;5.23;;;20.80;99.90;;;;;;5014247;28;20660;-73
2023/05/08 11:52:32;;;;;;;6.50;5.83;;;20.90;99.90;;;;;;5013494;28;20975;-73
2023/05/08 11:55:04;;;;;;;6.97;5.93;;;21.10;99.90;;;;;;5014030;28;20573;-73
2023/05/08 11:57:33;;;;;;;5.20;4.80;;;21.20;99.90;;;;;;5013166;28;20573;-73
2023/05/08 12:00:07;;;;;;;5.20;4.73;;;21.40;99.90;;;;;;5012509;28;20592;-73
2023/05/08 12:02:42;;;;;;;5.43;5.03;;;21.70;99.90;;;;;;5013124;28;20988;-73
2023/05/08 12:05:11;;;;;;;5.47;4.97;;;22.10;99.90;;;;;;4996690;28;20952;-73
2023/05/08 12:07:46;;;;;;;5.37;4.97;;;22.40;99.90;;;;;;5013095;28;20578;-73
2023/05/08 12:10:13;;;;;;;4.80;4.40;;;22.60;99.90;;;;;;5029290;28;20173;-73
2023/05/08 12:12:40;;;;;;;5.60;4.63;;;22.80;99.90;;;;;;5011682;28;20699;-73
2023/05/08 12:15:07;;;;;;;4.33;3.90;;;23.00;99.90;;;;;;5012379;28;20616;-73
2023/05/08 12:17:32;;;;;;;4.37;3.97;;;23.10;99.90;;;;;;4996023;28;20593;-73
2023/05/08 12:20:09;;;;;;;4.10;3.80;;;23.10;99.90;;;;;;5013253;28;20584;-73
2023/05/08 12:22:40;;;;;;;4.43;4.03;;;23.00;99.90;;;;;;4998154;28;20198;-73
2023/05/08 12:25:07;;;;;;;3.77;3.37;;;23.10;99.90;;;;;;5012964;28;20604;-73
2023/05/08 12:27:38;;;;;;;4.80;3.50;;;23.10;99.90;;;;;;5011849;28;20651;-72
2023/05/08 12:30:09;;;;;;;9.10;5.03;;;23.20;99.90;;;;;;5011687;28;20647;-72
2023/05/08 12:32:37;;;;;;;6.00;4.40;;;23.20;99.90;;;;;;5013076;28;21431;-73
2023/05/08 12:35:07;;;;;;;4.87;4.20;;;23.00;99.90;;;;;;4995149;28;20593;-73
2023/05/08 12:37:33;;;;;;;4.90;4.20;;;22.90;99.90;;;;;;5013171;28;20672;-73
2023/05/08 12:39:59;;;;;;;4.93;4.43;;;22.90;99.90;;;;;;5012530;28;20708;-73
2023/05/08 12:42:47;;;;;;;4.93;4.40;;;22.70;99.90;;;;;;5012663;28;20569;-73
2023/05/08 12:45:21;;;;;;;6.30;5.07;;;22.60;99.90;;;;;;5012594;28;20673;-73
2023/05/08 12:47:53;;;;;;;4.80;4.40;;;22.50;99.90;;;;;;5012776;28;20975;-73
2023/05/08 12:50:20;;;;;;;4.60;4.20;;;22.40;99.90;;;;;;5012543;28;20589;-73
2023/05/08 12:52:47;;;;;;;4.23;3.83;;;22.20;99.90;;;;;;5011581;28;21188;-73
2023/05/08 12:55:42;;;;;;;4.10;3.63;;;22.10;99.90;;;;;;5011508;28;20621;-73
2023/05/08 12:58:11;;;;;;;4.27;3.87;;;22.00;99.90;;;;;;5008095;28;20601;-73